Time;durP1;ratioP1;P1;durP2;ratioP2;P2;SDS_P1;SDS_P2;PMS_P1;PMS_P2;Temp;Humidity;BMP_temperature;BMP_pressure;BME280_temperature;BME280_humidity;BME280_pressure;Samples;Min_cycle;Max_cycle;Signal;HPM_P1;HPM_P2
2023/01/21 00:01:45;;;;;;;7.22;6.50;;;;;;;0.81;100.00;98826.28;4139227;28;20205;-47
2023/01/21 00:03:47;;;;;;;4.93;4.43;;;;;;;0.93;100.00;98838.31;4137444;28;20730;-47
2023/01/21 00:05:50;;;;;;;5.63;5.13;;;;;;;0.79;100.00;98833.72;4136420;28;20580;-47
2023/01/21 00:07:51;;;;;;;5.50;5.10;;;;;;;0.80;100.00;98834.56;4140511;28;20280;-47
2023/01/21 00:09:53;;;;;;;5.07;4.60;;;;;;;0.71;100.00;98832.94;4150339;28;20430;-48
2023/01/21 00:11:56;;;;;;;5.95;4.05;;;;;;;0.76;100.00;98842.16;4122918;28;20261;-47
2023/01/21 00:14:07;;;;;;;6.47;5.88;;;;;;;0.81;100.00;98842.44;4137209;28;20212;-48
2023/01/21 00:16:15;;;;;;;4.63;4.28;;;;;;;0.75;100.00;98853.09;4137407;28;20213;-47
2023/01/21 00:18:17;;;;;;;4.65;4.22;;;;;;;0.79;100.00;98852.56;4142335;28;20212;-48
2023/01/21 00:20:19;;;;;;;5.45;5.00;;;;;;;0.79;100.00;98847.19;4138889;28;20210;-47
2023/01/21 00:22:21;;;;;;;5.22;4.82;;;;;;;0.89;100.00;98847.75;4154619;28;20256;-47
2023/01/21 00:24:23;;;;;;;4.72;4.40;;;;;;;0.98;100.00;98851.22;4143912;28;20296;-46
2023/01/21 00:26:25;;;;;;;4.32;4.03;;;;;;;0.91;100.00;98851.13;4139598;28;20232;-48
2023/01/21 00:28:29;;;;;;;4.30;3.92;;;;;;;0.86;100.00;98853.50;4140730;28;20695;-47
2023/01/21 00:30:31;;;;;;;5.47;4.97;;;;;;;0.82;100.00;98862.97;4135008;28;20846;-47
2023/01/21 00:32:32;;;;;;;4.20;3.90;;;;;;;0.83;100.00;98859.28;4141149;28;20309;-47
2023/01/21 00:34:34;;;;;;;3.90;3.60;;;;;;;0.87;100.00;98865.97;4138243;28;20248;-48
2023/01/21 00:36:36;;;;;;;5.80;4.95;;;;;;;0.95;100.00;98865.88;4137247;28;20206;-47
2023/01/21 00:38:38;;;;;;;4.55;4.15;;;;;;;0.91;100.00;98867.28;4130881;28;20217;-46
2023/01/21 00:40:41;;;;;;;4.32;4.00;;;;;;;0.87;100.00;98868.66;4136194;28;20746;-47
2023/01/21 00:42:43;;;;;;;3.75;3.45;;;;;;;0.85;100.00;98873.38;4134133;28;20506;-47
2023/01/21 00:44:45;;;;;;;3.05;2.75;;;;;;;0.90;100.00;98873.69;4136330;28;20241;-47
2023/01/21 00:46:47;;;;;;;2.78;2.60;;;;;;;0.71;100.00;98874.16;4136651;28;20293;-46
2023/01/21 00:48:48;;;;;;;3.25;2.95;;;;;;;0.66;100.00;98879.25;4138849;28;20237;-47
2023/01/21 00:50:50;;;;;;;3.58;3.28;;;;;;;0.74;100.00;98887.25;4137373;28;20240;-46
2023/01/21 00:52:53;;;;;;;4.07;3.72;;;;;;;0.68;100.00;98879.91;4136638;28;20225;-47
2023/01/21 00:54:55;;;;;;;3.60;3.30;;;;;;;0.70;100.00;98882.41;4120521;28;20309;-46
2023/01/21 00:56:58;;;;;;;2.97;2.78;;;;;;;0.70;100.00;98885.97;4134150;28;20205;-47
2023/01/21 00:59:00;;;;;;;3.23;3.03;;;;;;;0.55;100.00;98887.72;4135356;28;20912;-47
2023/01/21 01:01:10;;;;;;;2.92;2.72;;;;;;;0.51;100.00;98889.13;4133433;28;20284;-46
2023/01/21 01:03:12;;;;;;;3.65;3.35;;;;;;;0.58;100.00;98898.16;4136438;28;20229;-46
2023/01/21 01:05:15;;;;;;;2.92;2.70;;;;;;;0.60;100.00;98896.13;4134591;28;21705;-47
2023/01/21 01:07:17;;;;;;;3.60;3.33;;;;;;;0.79;100.00;98884.88;4141978;28;20260;-46
2023/01/21 01:09:18;;;;;;;3.00;2.80;;;;;;;0.69;100.00;98900.41;4135987;28;20209;-46
2023/01/21 01:11:21;;;;;;;4.63;3.13;;;;;;;0.66;100.00;98899.94;4135262;28;20296;-46
2023/01/21 01:13:23;;;;;;;3.65;3.35;;;;;;;0.61;100.00;98903.16;4135608;28;20345;-47
2023/01/21 01:15:25;;;;;;;2.90;2.60;;;;;;;0.64;100.00;98908.22;4123739;28;20264;-47
2023/01/21 01:17:26;;;;;;;3.00;2.70;;;;;;;0.67;100.00;98902.47;4141558;28;20283;-46
2023/01/21 01:19:28;;;;;;;3.15;2.95;;;;;;;0.74;100.00;98907.97;4140164;28;20300;-48
2023/01/21 01:21:30;;;;;;;2.67;2.47;;;;;;;0.64;100.00;98905.53;4139966;28;20241;-47
2023/01/21 01:23:32;;;;;;;3.00;2.67;;;;;;;0.65;100.00;98915.28;4142021;28;20715;-46
2023/01/21 01:25:36;;;;;;;3.40;3.10;;;;;;;0.55;100.00;98914.66;4146642;28;20212;-47
2023/01/21 01:27:38;;;;;;;2.23;2.07;;;;;;;0.58;100.00;98913.47;4134179;28;20643;-47
2023/01/21 01:29:40;;;;;;;2.70;2.50;;;;;;;0.69;100.00;98916.56;4139312;28;20288;-46
2023/01/21 01:31:43;;;;;;;3.10;2.90;;;;;;;0.69;100.00;98918.44;4135854;28;20209;-46
2023/01/21 01:33:45;;;;;;;3.10;2.90;;;;;;;0.53;100.00;98929.28;4123380;28;20272;-47
2023/01/21 01:35:47;;;;;;;2.60;2.40;;;;;;;0.50;100.00;98927.81;4141166;28;20279;-47
2023/01/21 01:37:49;;;;;;;2.50;2.33;;;;;;;0.59;100.00;98931.28;4139646;28;20232;-47
2023/01/21 01:39:51;;;;;;;2.60;2.40;;;;;;;0.63;100.00;98928.09;4140260;28;20201;-47
2023/01/21 01:41:53;;;;;;;2.70;2.50;;;;;;;0.60;100.00;98931.09;4138444;28;20201;-47
2023/01/21 01:43:56;;;;;;;3.03;2.67;;;;;;;0.62;100.00;98936.31;4138800;28;20267;-47
2023/01/21 01:45:58;;;;;;;3.30;3.10;;;;;;;0.55;100.00;98946.13;4152124;28;20215;-47
2023/01/21 01:48:05;;;;;;;2.95;2.75;;;;;;;0.55;100.00;98952.34;4137803;28;20204;-47
2023/01/21 01:50:10;;;;;;;2.63;2.42;;;;;;;0.60;100.00;98943.75;4144537;28;20213;-46
2023/01/21 01:52:13;;;;;;;3.00;2.80;;;;;;;0.60;100.00;98949.97;4141697;28;20229;-46
2023/01/21 01:54:20;;;;;;;2.30;2.10;;;;;;;0.52;100.00;98957.22;4138625;28;20213;-46
2023/01/21 01:56:22;;;;;;;2.28;2.17;;;;;;;0.54;100.00;98950.66;4140278;28;20318;-46
2023/01/21 01:58:24;;;;;;;2.13;2.03;;;;;;;0.59;100.00;98956.34;4121332;28;20221;-48
2023/01/21 02:00:26;;;;;;;2.08;1.98;;;;;;;0.54;100.00;98958.72;4135336;28;20272;-49
2023/01/21 02:02:28;;;;;;;2.58;2.42;;;;;;;0.47;100.00;98963.16;4137387;28;20297;-47
2023/01/21 02:04:34;;;;;;;3.13;2.90;;;;;;;0.50;100.00;98976.28;4142968;28;20236;-46
2023/01/21 02:06:37;;;;;;;2.37;2.17;;;;;;;0.42;100.00;98978.16;4139272;28;20328;-48
2023/01/21 02:08:39;;;;;;;2.70;2.60;;;;;;;0.47;100.00;98979.28;4137632;28;20313;-48
2023/01/21 02:10:40;;;;;;;3.27;3.07;;;;;;;0.57;100.00;98987.16;4138407;28;21108;-48
2023/01/21 02:12:43;;;;;;;3.30;3.07;;;;;;;0.50;100.00;98987.03;4150299;28;20252;-47
2023/01/21 02:14:45;;;;;;;2.90;2.70;;;;;;;0.41;100.00;98993.44;4137525;28;20669;-47
2023/01/21 02:17:06;;;;;;;2.37;2.27;;;;;;;0.41;100.00;98990.75;4138318;28;20209;-46
2023/01/21 02:19:38;;;;;;;2.85;2.67;;;;;;;0.40;100.00;98994.47;4137622;28;20651;-47
2023/01/21 02:21:58;;;;;;;2.83;2.63;;;;;;;0.33;100.00;99000.72;4137556;28;20577;-47
2023/01/21 02:24:24;;;;;;;2.80;2.60;;;;;;;0.22;100.00;99004.63;4134243;28;21271;-47
2023/01/21 02:27:11;;;;;;;3.73;3.53;;;;;;;0.24;100.00;99001.75;4154119;28;20308;-47
2023/01/21 02:29:34;;;;;;;2.03;1.93;;;;;;;0.23;100.00;99009.00;4119453;28;20206;-47
2023/01/21 02:32:05;;;;;;;2.57;2.47;;;;;;;0.26;100.00;99014.03;4139065;28;20253;-47
2023/01/21 02:34:09;;;;;;;2.37;2.27;;;;;;;0.26;100.00;99021.25;4138994;28;20202;-47
2023/01/21 02:36:21;;;;;;;2.93;2.73;;;;;;;0.24;100.00;99025.97;4138794;28;20205;-47
2023/01/21 02:38:31;;;;;;;3.50;2.90;;;;;;;0.15;100.00;99022.47;4136499;28;20786;-49
2023/01/21 02:40:33;;;;;;;2.17;2.07;;;;;;;0.17;100.00;99028.53;4155643;28;20292;-47
2023/01/21 02:42:45;;;;;;;2.93;2.73;;;;;;;0.20;100.00;99038.13;4139369;28;20230;-48
2023/01/21 02:45:10;;;;;;;2.73;2.53;;;;;;;0.17;100.00;99033.91;4138809;28;20220;-47
2023/01/21 02:47:33;;;;;;;3.13;2.93;;;;;;;0.16;100.00;99042.97;4138070;28;20764;-47
2023/01/21 02:50:04;;;;;;;2.70;2.53;;;;;;;0.15;100.00;99046.69;4138284;28;20293;-47
2023/01/21 02:52:06;;;;;;;2.87;2.67;;;;;;;0.20;100.00;99049.69;4137668;28;20347;-47
2023/01/21 02:54:33;;;;;;;2.97;2.73;;;;;;;0.20;100.00;99044.31;4142232;28;20263;-47
2023/01/21 02:56:34;;;;;;;3.07;2.87;;;;;;;0.07;100.00;99044.00;4137893;28;20770;-47
2023/01/21 02:58:39;;;;;;;2.53;2.40;;;;;;;0.10;100.00;99062.50;4139401;28;20251;-47
2023/01/21 03:00:43;;;;;;;3.43;3.23;;;;;;;0.17;100.00;99058.13;4157406;28;20686;-46
2023/01/21 03:03:09;;;;;;;3.30;3.10;;;;;;;0.23;100.00;99070.91;4142439;28;20789;-47
2023/01/21 03:05:24;;;;;;;2.30;2.20;;;;;;;0.24;100.00;99077.94;4137220;28;20218;-46
2023/01/21 03:07:33;;;;;;;2.40;2.30;;;;;;;0.09;100.00;99079.63;4150810;28;20288;-48
2023/01/21 03:09:36;;;;;;;3.07;2.87;;;;;;;0.13;100.00;99078.31;4141379;28;20220;-47
2023/01/21 03:11:40;;;;;;;2.97;2.73;;;;;;;0.09;100.00;99079.63;4137477;28;20702;-47
2023/01/21 03:18:44;;;;;;;3.20;3.00;;;;;;;0.03;100.00;99080.34;4138625;28;20672;-47
2023/01/21 03:20:58;;;;;;;2.60;2.40;;;;;;;0.01;100.00;99087.72;4139588;28;20240;-47
2023/01/21 03:23:02;;;;;;;3.20;3.00;;;;;;;-0.08;100.00;99094.13;4141065;28;20279;-46
2023/01/21 03:25:07;;;;;;;4.10;3.80;;;;;;;-0.08;100.00;99094.13;4139268;28;20222;-46
2023/01/21 03:27:12;;;;;;;3.93;3.67;;;;;;;-0.06;100.00;99097.47;4141504;28;20288;-47
2023/01/21 03:29:17;;;;;;;2.80;2.60;;;;;;;0.06;100.00;99103.34;4138529;28;20240;-47
2023/01/21 03:31:24;;;;;;;3.97;3.70;;;;;;;0.10;100.00;99102.88;4149917;28;20739;-47
2023/01/21 03:33:28;;;;;;;3.13;2.93;;;;;;;0.03;100.00;99101.88;4138942;28;20233;-46
2023/01/21 03:35:32;;;;;;;3.40;3.20;;;;;;;-0.06;100.00;99105.56;4140295;28;20214;-47
2023/01/21 03:37:42;;;;;;;3.50;3.30;;;;;;;-0.08;100.00;99121.03;4135812;28;20236;-47
2023/01/21 03:40:03;;;;;;;3.60;3.30;;;;;;;-0.06;100.00;99124.38;4124419;28;20570;-47
2023/01/21 03:42:05;;;;;;;3.73;3.43;;;;;;;-0.09;100.00;99133.81;4152201;28;20596;-47
2023/01/21 03:44:07;;;;;;;3.67;3.47;;;;;;;-0.08;100.00;99131.78;4138599;28;20229;-47
2023/01/21 03:46:31;;;;;;;3.63;3.43;;;;;;;-0.02;100.00;99130.25;4136778;28;20233;-47
2023/01/21 03:49:01;;;;;;;4.30;4.03;;;;;;;-0.08;100.00;99130.94;4133519;28;20198;-46
2023/01/21 03:51:09;;;;;;;3.30;3.10;;;;;;;-0.07;100.00;99128.06;4138150;28;20221;-47
2023/01/21 03:53:11;;;;;;;5.00;4.57;;;;;;;-0.04;100.00;99135.78;4119998;28;20646;-47
2023/01/21 03:55:15;;;;;;;4.20;3.90;;;;;;;-0.05;100.00;99133.28;4131832;28;20236;-48
2023/01/21 03:57:17;;;;;;;3.97;3.67;;;;;;;-0.14;100.00;99136.97;4137810;28;20237;-47
2023/01/21 03:59:18;;;;;;;4.80;4.40;;;;;;;-0.06;100.00;99145.88;4152419;28;20643;-47
2023/01/21 04:01:20;;;;;;;4.47;4.13;;;;;;;0.04;100.00;99146.56;4137761;28;20253;-48
2023/01/21 04:03:22;;;;;;;5.53;4.33;;;;;;;0.04;100.00;99141.19;4151477;28;20750;-47
2023/01/21 04:05:24;;;;;;;3.40;3.20;;;;;;;0.03;100.00;99147.59;4137472;28;20654;-46
2023/01/21 04:07:26;;;;;;;4.10;3.83;;;;;;;-0.01;100.00;99143.53;4137569;28;20305;-47
2023/01/21 04:09:27;;;;;;;4.87;4.40;;;;;;;-0.08;100.00;99147.06;4150653;28;20213;-47
2023/01/21 04:11:29;;;;;;;4.10;3.80;;;;;;;0.01;100.00;99157.66;4138788;28;20706;-47
2023/01/21 04:13:31;;;;;;;4.37;4.07;;;;;;;-0.08;100.00;99157.81;4141980;28;20292;-46
2023/01/21 04:15:33;;;;;;;4.53;4.23;;;;;;;-0.08;100.00;99157.00;4125233;28;20257;-47
2023/01/21 04:17:34;;;;;;;4.63;4.23;;;;;;;-0.11;100.00;99168.94;4140431;28;21891;-48
2023/01/21 04:19:36;;;;;;;3.70;3.50;;;;;;;-0.09;100.00;99171.47;4136941;28;20236;-48
2023/01/21 04:21:38;;;;;;;4.10;3.80;;;;;;;-0.07;100.00;99171.09;4124527;28;20240;-49
2023/01/21 04:23:40;;;;;;;4.30;3.50;;;;;;;-0.01;100.00;99188.41;4137356;28;20262;-48
2023/01/21 04:25:42;;;;;;;4.67;4.27;;;;;;;0.07;100.00;99177.69;4135928;28;20711;-48
2023/01/21 04:27:43;;;;;;;4.03;3.73;;;;;;;-0.05;100.00;99179.00;4138143;28;20202;-47
2023/01/21 04:29:45;;;;;;;4.57;4.27;;;;;;;-0.05;100.00;99179.84;4137214;28;20305;-47
2023/01/21 04:31:47;;;;;;;4.87;4.47;;;;;;;-0.12;100.00;99181.50;4135417;28;20237;-47
2023/01/21 04:33:49;;;;;;;5.77;5.37;;;;;;;-0.12;100.00;99181.50;4136934;28;20256;-49
2023/01/21 04:35:50;;;;;;;6.20;5.80;;;;;;;-0.09;100.00;99187.59;4151015;28;20683;-48
2023/01/21 04:37:52;;;;;;;6.20;5.63;;;;;;;-0.07;100.00;99202.53;4141020;28;20292;-47
2023/01/21 04:39:54;;;;;;;5.93;5.50;;;;;;;0.01;100.00;99200.69;4134422;28;20224;-48
2023/01/21 04:41:56;;;;;;;6.07;5.57;;;;;;;-0.09;100.00;99204.56;4134524;28;20335;-48
2023/01/21 04:43:57;;;;;;;6.13;5.00;;;;;;;0.00;100.00;99198.19;4139642;28;20300;-48
2023/01/21 04:45:59;;;;;;;5.60;5.20;;;;;;;-0.06;100.00;99205.06;4123689;28;20740;-47
2023/01/21 04:48:01;;;;;;;5.57;5.17;;;;;;;-0.05;100.00;99206.72;4137143;28;20308;-47
2023/01/21 04:50:03;;;;;;;5.57;5.07;;;;;;;-0.23;100.00;99212.41;4149766;28;20627;-46
2023/01/21 04:52:05;;;;;;;6.70;6.10;;;;;;;-0.22;100.00;99209.56;4150634;28;20818;-48
2023/01/21 04:54:09;;;;;;;6.77;6.17;;;;;;;-0.18;100.00;99218.16;4147510;28;20258;-48
2023/01/21 04:56:10;;;;;;;7.73;7.00;;;;;;;-0.23;100.00;99212.41;4150841;28;20683;-47
2023/01/21 04:58:12;;;;;;;8.20;7.50;;;;;;;-0.28;100.00;99220.16;4135409;28;20233;-47
2023/01/21 05:00:14;;;;;;;8.50;7.70;;;;;;;-0.16;100.00;99225.03;4137126;28;20308;-48
2023/01/21 05:02:17;;;;;;;9.43;8.53;;;;;;;-0.14;100.00;99223.03;4139224;28;20257;-47
2023/01/21 05:04:19;;;;;;;8.77;8.07;;;;;;;-0.06;100.00;99221.19;4141650;28;20216;-48
2023/01/21 05:06:21;;;;;;;8.60;7.87;;;;;;;-0.22;100.00;99230.25;4134871;28;20723;-47
2023/01/21 05:08:23;;;;;;;9.50;8.70;;;;;;;-0.13;100.00;99234.63;4136907;28;20956;-47
2023/01/21 05:10:24;;;;;;;10.10;9.10;;;;;;;-0.12;100.00;99227.22;4134847;28;20272;-47
2023/01/21 05:12:27;;;;;;;11.13;10.03;;;;;;;-0.21;100.00;99231.94;4136599;28;20221;-49
2023/01/21 05:14:29;;;;;;;11.50;10.40;;;;;;;-0.15;100.00;99236.66;4139974;28;20209;-47
2023/01/21 05:16:30;;;;;;;11.27;10.17;;;;;;;-0.23;100.00;99233.91;4134739;28;20206;-47
2023/01/21 05:18:32;;;;;;;8.83;8.03;;;;;;;-0.26;100.00;99245.03;4136309;28;20229;-47
2023/01/21 05:20:34;;;;;;;11.57;10.67;;;;;;;-0.29;100.00;99242.69;4140506;28;20303;-47
2023/01/21 05:22:36;;;;;;;11.97;10.87;;;;;;;-0.36;100.00;99238.97;4137128;28;20237;-49
2023/01/21 05:24:37;;;;;;;13.63;12.33;;;;;;;-0.26;100.00;99234.28;4136086;28;20268;-47
2023/01/21 05:26:39;;;;;;;11.63;10.50;;;;;;;-0.34;100.00;99247.69;4137364;28;20276;-47
2023/01/21 05:28:41;;;;;;;10.50;9.50;;;;;;;-0.40;100.00;99248.34;4138045;28;20201;-49
2023/01/21 05:30:43;;;;;;;12.77;11.57;;;;;;;-0.31;100.00;99256.28;4142070;28;20218;-48
2023/01/21 05:32:52;;;;;;;13.80;12.50;;;;;;;-0.30;100.00;99262.47;4141978;28;20320;-47
2023/01/21 05:34:53;;;;;;;15.00;12.23;;;;;;;-0.24;100.00;99265.38;4139435;28;20228;-47
2023/01/21 05:36:55;;;;;;;13.93;11.30;;;;;;;-0.23;100.00;99271.56;4139723;28;20217;-48
2023/01/21 05:38:57;;;;;;;13.13;11.83;;;;;;;-0.36;100.00;99272.03;4147798;28;20236;-47
2023/01/21 05:41:00;;;;;;;14.70;12.47;;;;;;;-0.34;100.00;99282.66;4130487;28;20605;-48
2023/01/21 05:43:02;;;;;;;16.47;12.37;;;;;;;-0.35;100.00;99272.91;4140549;28;20231;-47
2023/01/21 05:45:04;;;;;;;14.40;12.93;;;;;;;-0.37;100.00;99275.75;4136268;28;20237;-47
2023/01/21 05:47:07;;;;;;;12.30;11.30;;;;;;;-0.39;100.00;99277.75;4136808;28;20233;-48
2023/01/21 05:49:09;;;;;;;13.90;12.60;;;;;;;-0.40;100.00;99277.91;4130679;28;20256;-47
2023/01/21 05:51:11;;;;;;;12.73;11.53;;;;;;;-0.41;100.00;99285.13;4136258;28;20248;-47
2023/01/21 05:53:12;;;;;;;15.00;11.87;;;;;;;-0.41;100.00;99281.59;4139679;28;20872;-47
2023/01/21 05:55:14;;;;;;;14.20;12.87;;;;;;;-0.34;100.00;99288.00;4134938;28;20665;-47
2023/01/21 05:57:16;;;;;;;13.07;11.90;;;;;;;-0.47;100.00;99284.94;4150586;28;20236;-47
2023/01/21 05:59:18;;;;;;;13.23;12.13;;;;;;;-0.48;100.00;99288.63;4131685;28;20210;-49
2023/01/21 06:01:20;;;;;;;14.10;12.80;;;;;;;-0.42;100.00;99299.56;4138691;28;20255;-47
2023/01/21 06:03:22;;;;;;;12.27;11.13;;;;;;;-0.52;100.00;99308.75;4132456;28;20667;-49
2023/01/21 06:05:24;;;;;;;12.57;11.27;;;;;;;-0.40;100.00;99310.16;4147390;28;20245;-47
2023/01/21 06:07:25;;;;;;;11.20;10.13;;;;;;;-0.43;100.00;99313.16;4137954;28;20239;-47
2023/01/21 06:09:27;;;;;;;12.83;11.60;;;;;;;-0.48;100.00;99316.34;4138733;28;20375;-48
2023/01/21 06:11:29;;;;;;;11.60;10.40;;;;;;;-0.57;100.00;99311.94;4135517;28;20304;-47
2023/01/21 06:13:31;;;;;;;11.73;10.73;;;;;;;-0.69;100.00;99318.59;4139403;28;20261;-48
2023/01/21 06:15:32;;;;;;;16.13;10.83;;;;;;;-0.68;100.00;99314.06;4137523;28;20307;-48
2023/01/21 06:17:37;;;;;;;15.00;11.13;;;;;;;-0.73;100.00;99321.75;4140321;28;20218;-47
2023/01/21 06:19:39;;;;;;;10.93;9.83;;;;;;;-0.76;100.00;99328.28;4135465;28;20205;-47
2023/01/21 06:21:41;;;;;;;12.13;10.97;;;;;;;-0.80;100.00;99331.47;4137465;28;20256;-47
2023/01/21 06:23:43;;;;;;;11.73;10.13;;;;;;;-0.68;100.00;99330.19;4133154;28;20213;-48
2023/01/21 06:25:44;;;;;;;12.93;11.53;;;;;;;-0.80;100.00;99331.47;4152079;28;20267;-47
2023/01/21 06:27:49;;;;;;;12.87;11.77;;;;;;;-0.63;100.00;99335.91;4137545;28;20264;-47
2023/01/21 06:29:51;;;;;;;11.73;10.40;;;;;;;-0.75;100.00;99334.53;4136227;28;20583;-47
2023/01/21 06:31:53;;;;;;;11.03;9.97;;;;;;;-0.73;100.00;99343.25;4141559;28;20791;-48
2023/01/21 06:33:55;;;;;;;15.77;14.17;;;;;;;-0.88;100.00;99347.53;4142696;28;20205;-48
2023/01/21 06:35:56;;;;;;;13.10;11.77;;;;;;;-0.93;100.00;99347.16;4136618;28;20726;-47
2023/01/21 06:37:58;;;;;;;11.37;9.93;;;;;;;-1.03;100.00;99349.09;4142228;28;20212;-47
2023/01/21 06:40:00;;;;;;;15.20;10.40;;;;;;;-1.20;100.00;99349.97;4140436;28;20297;-47
2023/01/21 06:42:02;;;;;;;12.50;11.30;;;;;;;-1.03;100.00;99346.41;4137878;28;20233;-47
2023/01/21 06:44:04;;;;;;;10.87;9.87;;;;;;;-1.29;100.00;99354.44;4139758;28;20202;-49
2023/01/21 06:46:05;;;;;;;13.13;12.10;;;;;;;-1.37;100.00;99358.88;4138515;28;20361;-47
2023/01/21 06:48:07;;;;;;;10.07;9.10;;;;;;;-1.43;100.00;99359.50;4127283;28;20210;-46
2023/01/21 06:50:10;;;;;;;11.10;9.47;;;;;;;-1.75;100.00;99361.91;4139509;28;20668;-47
2023/01/21 06:52:12;;;;;;;13.50;11.10;;;;;;;-1.65;100.00;99368.00;4138910;28;20240;-47
2023/01/21 06:54:14;;;;;;;10.93;9.80;;;;;;;-1.45;100.00;99373.09;4139319;28;20205;-48
2023/01/21 06:56:16;;;;;;;12.50;11.13;;;;;;;-1.52;100.00;99373.84;4138108;28;20319;-48
2023/01/21 06:58:17;;;;;;;12.07;10.90;;;;;;;-1.55;100.00;99376.84;4139560;28;20324;-48
2023/01/21 07:00:20;;;;;;;11.33;10.33;;;;;;;-1.44;100.00;99379.28;4154016;28;20930;-48
2023/01/21 07:02:21;;;;;;;9.83;8.97;;;;;;;-1.43;100.00;99376.44;4136423;28;20263;-49
2023/01/21 07:04:25;;;;;;;9.77;8.73;;;;;;;-1.57;100.00;99373.44;4136630;28;20217;-47
2023/01/21 07:06:27;;;;;;;10.93;9.53;;;;;;;-1.65;100.00;99376.91;4137474;28;20220;-47
2023/01/21 07:08:28;;;;;;;11.60;10.37;;;;;;;-1.68;100.00;99381.75;4153739;28;20631;-47
2023/01/21 07:10:30;;;;;;;12.57;9.80;;;;;;;-1.66;100.00;99383.28;4138438;28;20241;-48
2023/01/21 07:12:32;;;;;;;15.53;11.00;;;;;;;-1.89;100.00;99386.56;4126755;28;20257;-48
2023/01/21 07:14:34;;;;;;;11.13;10.10;;;;;;;-1.67;100.00;99394.16;4136991;28;20296;-47
2023/01/21 07:16:35;;;;;;;9.53;8.80;;;;;;;-1.80;100.00;99399.88;4141503;28;20213;-47
2023/01/21 07:18:37;;;;;;;9.83;8.93;;;;;;;-1.96;100.00;99404.19;4135739;28;20296;-47
2023/01/21 07:20:39;;;;;;;12.47;11.37;;;;;;;-1.94;100.00;99407.59;4141272;28;20221;-47
2023/01/21 07:22:41;;;;;;;12.40;11.13;;;;;;;-1.82;100.00;99406.41;4136022;28;20232;-47
2023/01/21 07:24:43;;;;;;;10.50;9.50;;;;;;;-1.74;100.00;99398.44;4148089;28;20300;-47
2023/01/21 07:26:44;;;;;;;12.97;11.10;;;;;;;-1.67;100.00;99404.88;4136383;28;20225;-48
2023/01/21 07:28:46;;;;;;;10.30;9.30;;;;;;;-1.62;100.00;99407.97;4139254;28;20237;-47
2023/01/21 07:30:48;;;;;;;9.33;8.53;;;;;;;-1.53;100.00;99412.41;4137855;28;20213;-48
2023/01/21 07:32:50;;;;;;;11.10;9.93;;;;;;;-1.69;100.00;99407.72;4139182;28;20229;-49
2023/01/21 07:34:51;;;;;;;10.77;9.77;;;;;;;-1.60;100.00;99412.16;4140677;28;20213;-47
2023/01/21 07:36:53;;;;;;;13.17;9.97;;;;;;;-1.69;100.00;99414.94;4138763;28;20317;-48
2023/01/21 07:38:55;;;;;;;11.23;10.23;;;;;;;-1.84;100.00;99409.22;4140515;28;20209;-48
2023/01/21 07:40:57;;;;;;;10.03;8.97;;;;;;;-1.81;100.00;99406.22;4152578;28;20704;-48
2023/01/21 07:42:58;;;;;;;10.87;9.97;;;;;;;-1.74;100.00;99426.09;4136078;28;20249;-48
2023/01/21 07:45:02;;;;;;;11.00;9.90;;;;;;;-1.71;100.00;99419.56;4140315;28;20263;-47
2023/01/21 07:47:04;;;;;;;10.93;9.77;;;;;;;-1.81;100.00;99429.53;4138214;28;20205;-47
2023/01/21 07:49:06;;;;;;;10.00;9.00;;;;;;;-1.65;100.00;99427.88;4142488;28;20255;-47
2023/01/21 07:51:07;;;;;;;11.73;10.53;;;;;;;-1.74;100.00;99427.94;4152710;28;20237;-48
2023/01/21 07:53:11;;;;;;;11.33;10.30;;;;;;;-1.53;100.00;99434.69;4138685;28;20248;-47
2023/01/21 07:55:12;;;;;;;12.77;11.53;;;;;;;-1.46;100.00;99429.59;4139484;28;20217;-47
2023/01/21 07:57:14;;;;;;;12.17;10.73;;;;;;;-1.43;100.00;99442.69;4136773;28;20206;-48
2023/01/21 07:59:16;;;;;;;12.40;11.23;;;;;;;-1.41;100.00;99443.41;4139133;28;20212;-48
2023/01/21 08:01:18;;;;;;;11.83;10.57;;;;;;;-1.39;100.00;99446.75;4140461;28;20259;-48
2023/01/21 08:03:22;;;;;;;10.80;9.80;;;;;;;-1.28;100.00;99450.06;4136498;28;20289;-48
2023/01/21 08:05:24;;;;;;;13.30;9.57;;;;;;;-1.34;100.00;99439.94;4138409;28;20233;-47
2023/01/21 08:07:26;;;;;;;12.70;11.40;;;;;;;-1.32;100.00;99447.84;4138485;28;20244;-47
2023/01/21 08:09:27;;;;;;;12.90;11.23;;;;;;;-1.35;100.00;99453.53;4135323;28;20237;-48
2023/01/21 08:11:29;;;;;;;9.73;8.73;;;;;;;-1.41;100.00;99449.59;4134619;28;20315;-48
2023/01/21 08:13:31;;;;;;;12.87;11.10;;;;;;;-1.35;100.00;99453.53;4135767;28;20243;-47
2023/01/21 08:15:33;;;;;;;10.53;9.43;;;;;;;-1.34;100.00;99461.41;4136826;28;20202;-46
2023/01/21 08:17:38;;;;;;;8.93;8.07;;;;;;;-1.39;100.00;99457.50;4139240;28;20271;-48
2023/01/21 08:19:40;;;;;;;11.83;10.47;;;;;;;-1.39;100.00;99457.50;4133994;28;20245;-48
2023/01/21 08:21:42;;;;;;;11.07;10.07;;;;;;;-1.38;100.00;99467.22;4133031;28;20257;-48
2023/01/21 08:23:43;;;;;;;13.13;9.40;;;;;;;-1.37;100.00;99466.22;4138613;28;20751;-48
2023/01/21 08:25:45;;;;;;;11.10;10.07;;;;;;;-1.35;100.00;99464.25;4133023;28;20653;-48
2023/01/21 08:27:47;;;;;;;11.50;10.47;;;;;;;-1.30;100.00;99467.31;4134915;28;20242;-48
2023/01/21 08:29:48;;;;;;;11.87;10.77;;;;;;;-1.23;100.00;99473.75;4134013;28;20234;-48
2023/01/21 08:31:51;;;;;;;9.97;9.17;;;;;;;-1.44;100.00;99473.19;4137632;28;20296;-48
2023/01/21 08:33:53;;;;;;;14.30;9.60;;;;;;;-1.56;100.00;99479.75;4138269;28;20868;-47
2023/01/21 08:35:59;;;;;;;11.33;9.30;;;;;;;-1.61;100.00;99480.22;4132836;28;20850;-48
2023/01/21 08:38:01;;;;;;;9.80;9.00;;;;;;;-1.58;100.00;99476.41;4134206;28;20387;-47
2023/01/21 08:40:03;;;;;;;9.83;8.83;;;;;;;-1.48;100.00;99482.56;4134393;28;20649;-47
2023/01/21 08:42:05;;;;;;;10.30;9.30;;;;;;;-1.30;100.00;99478.91;4136474;28;20225;-48
2023/01/21 08:44:07;;;;;;;13.13;11.90;;;;;;;-1.10;100.00;99484.94;4132794;28;20314;-47
2023/01/21 08:46:08;;;;;;;10.03;9.07;;;;;;;-0.87;100.00;99486.19;4134753;28;20586;-47
2023/01/21 08:48:10;;;;;;;19.23;11.17;;;;;;;-0.65;100.00;99496.44;4137632;28;20296;-48
2023/01/21 08:50:12;;;;;;;14.17;10.50;;;;;;;-0.80;100.00;99498.84;4140366;28;20690;-47
2023/01/21 08:52:15;;;;;;;11.63;10.60;;;;;;;-0.71;100.00;99503.28;4121159;28;20307;-48
2023/01/21 08:54:19;;;;;;;10.80;9.85;;;;;;;-0.26;100.00;99495.91;4138538;28;20206;-48
2023/01/21 08:56:21;;;;;;;10.40;9.57;;;;;;;0.20;100.00;99493.66;4133699;28;20213;-47
2023/01/21 08:58:23;;;;;;;10.93;9.93;;;;;;;0.19;100.00;99500.03;4139205;28;20221;-48
2023/01/21 09:00:24;;;;;;;11.00;9.90;;;;;;;0.55;100.00;99498.00;4138348;28;20210;-47
2023/01/21 09:02:27;;;;;;;10.88;9.82;;;;;;;0.95;100.00;99498.94;4137654;28;20320;-48
2023/01/21 09:04:29;;;;;;;9.48;8.57;;;;;;;1.19;99.25;99507.06;4135010;28;20220;-49
2023/01/21 09:06:30;;;;;;;9.05;8.15;;;;;;;1.39;98.38;99510.28;4135801;28;20757;-48
2023/01/21 09:08:32;;;;;;;9.15;8.23;;;;;;;1.49;97.25;99517.19;4135915;28;20230;-48
2023/01/21 09:12:54;;;;;;;8.45;7.72;;;;;;;1.46;94.59;99514.84;4137107;28;20340;-49
2023/01/21 09:14:59;;;;;;;9.02;7.85;;;;;;;1.50;95.08;99521.59;4131801;28;20449;-49
2023/01/21 09:17:01;;;;;;;7.55;6.78;;;;;;;1.69;94.06;99510.44;4137014;28;20276;-48
2023/01/21 09:19:03;;;;;;;8.38;7.68;;;;;;;1.49;94.84;99506.41;4133547;28;20247;-48
2023/01/21 09:21:05;;;;;;;8.70;7.90;;;;;;;1.56;94.58;99510.13;4134911;28;20864;-48
2023/01/21 09:23:23;;;;;;;9.93;8.73;;;;;;;1.42;95.23;99507.25;4116194;28;20229;-48
2023/01/21 09:25:25;;;;;;;8.43;7.63;;;;;;;1.05;94.49;99521.22;4134510;28;20299;-48
2023/01/21 09:27:27;;;;;;;10.70;8.30;;;;;;;0.94;96.89;99518.00;4150975;28;20224;-48
2023/01/21 09:29:29;;;;;;;8.38;7.68;;;;;;;0.73;97.52;99529.19;4133493;28;20213;-48
2023/01/21 09:31:31;;;;;;;8.45;7.65;;;;;;;0.85;97.46;99525.19;4137610;28;20317;-48
2023/01/21 09:33:35;;;;;;;8.68;6.95;;;;;;;0.74;98.13;99528.19;4119618;28;20690;-48
2023/01/21 09:35:37;;;;;;;9.15;8.25;;;;;;;0.81;98.58;99526.53;4137599;28;20273;-48
2023/01/21 09:37:38;;;;;;;9.13;8.32;;;;;;;0.81;100.00;99533.78;4129166;28;20575;-48
2023/01/21 09:39:40;;;;;;;9.20;8.38;;;;;;;0.86;99.25;99534.97;4117074;28;20292;-49
2023/01/21 09:41:52;;;;;;;11.23;8.68;;;;;;;0.83;100.00;99538.00;4134633;28;20847;-48
2023/01/21 09:44:21;;;;;;;10.02;9.15;;;;;;;0.82;99.84;99536.28;4135599;28;20205;-48